createdAt,value
2019-01-14T00:00:34.660Z,98888.77
2019-01-14T00:03:09.035Z,98890.55
2019-01-14T00:05:42.262Z,98896.59
2019-01-14T00:08:15.345Z,98904.91
2019-01-14T00:10:50.112Z,98900.22
2019-01-14T00:13:23.164Z,98892.97
2019-01-14T00:15:56.328Z,98905.86
2019-01-14T00:18:29.732Z,98903.92
2019-01-14T00:21:02.757Z,98911.33
2019-01-14T00:23:35.702Z,98913.91
2019-01-14T00:26:10.818Z,98919.28
2019-01-14T00:28:44.184Z,98924.38
2019-01-14T00:31:17.141Z,98918.43
2019-01-14T00:33:50.593Z,98924.17
2019-01-14T00:36:23.790Z,98933.49
2019-01-14T00:38:56.705Z,98932.88
2019-01-14T00:41:30.184Z,98938.97
2019-01-14T00:44:03.097Z,98940.78
2019-01-14T00:46:36.055Z,98935.69
2019-01-14T00:49:09.474Z,98947.68
2019-01-14T00:51:42.436Z,98961.25
2019-01-14T00:54:15.462Z,98967.61
2019-01-14T00:56:48.812Z,98964.31
2019-01-14T00:59:21.876Z,98966.45
2019-01-14T01:01:54.827Z,98964.67
2019-01-14T01:04:28.266Z,98970.23
2019-01-14T01:07:01.184Z,98969.70
2019-01-14T01:09:34.278Z,98969.48
2019-01-14T01:12:07.889Z,98969.59
2019-01-14T01:14:41.057Z,98964.78
2019-01-14T01:17:14.168Z,98966.95
2019-01-14T01:19:47.628Z,98981.76
2019-01-14T01:22:20.566Z,98991.11
2019-01-14T01:24:53.794Z,98975.88
2019-01-14T01:27:27.308Z,98979.33
2019-01-14T01:30:00.627Z,98984.41
2019-01-14T01:32:34.845Z,98987.91
2019-01-14T01:35:10.685Z,98996.55
2019-01-14T01:37:43.600Z,98996.28
2019-01-14T01:40:21.242Z,99004.13
2019-01-14T01:42:54.396Z,99005.14
2019-01-14T01:45:27.784Z,99015.06
2019-01-14T01:48:00.724Z,99015.22
2019-01-14T01:50:33.751Z,99013.00
2019-01-14T01:53:07.109Z,99016.67
2019-01-14T01:55:39.951Z,99021.69
2019-01-14T01:58:13.714Z,99034.45
2019-01-14T02:00:47.119Z,99031.14
2019-01-14T02:03:20.091Z,99039.75
2019-01-14T02:05:53.019Z,99044.36
2019-01-14T02:08:26.492Z,99046.88
2019-01-14T02:10:59.792Z,99043.67
2019-01-14T02:13:32.643Z,99056.22
2019-01-14T02:16:06.112Z,99061.55
2019-01-14T02:18:39.284Z,99057.52
2019-01-14T02:21:12.576Z,99061.63
2019-01-14T02:23:46.049Z,99060.62
2019-01-14T02:26:19.096Z,99063.42
2019-01-14T02:28:52.016Z,99070.78
2019-01-14T02:31:25.407Z,99068.70
2019-01-14T02:33:59.540Z,99070.02
2019-01-14T02:36:32.408Z,99073.52
2019-01-14T02:39:08.210Z,99086.59
2019-01-14T02:41:41.127Z,99092.81
2019-01-14T02:44:14.131Z,99101.56
2019-01-14T02:46:48.696Z,99105.91
2019-01-14T02:49:21.933Z,99098.38
2019-01-14T02:51:55.168Z,99103.19
2019-01-14T02:54:28.955Z,99096.13
2019-01-14T02:57:01.853Z,99098.98
2019-01-14T02:59:34.846Z,99104.39
2019-01-14T03:02:08.243Z,99096.92
2019-01-14T03:04:41.199Z,99097.30
2019-01-14T03:07:14.091Z,99102.53
2019-01-14T03:09:47.595Z,99100.72
2019-01-14T03:12:20.598Z,99100.88
2019-01-14T03:14:53.599Z,99097.25
2019-01-14T03:17:27.092Z,99102.67
2019-01-14T03:20:00.022Z,99108.39
2019-01-14T03:22:33.111Z,99108.09
2019-01-14T03:25:07.629Z,99114.48
2019-01-14T03:27:40.491Z,99108.42
2019-01-14T03:30:19.682Z,99111.23
2019-01-14T03:32:53.082Z,99127.50
2019-01-14T03:35:25.971Z,99121.51
2019-01-14T03:37:59.005Z,99131.55
2019-01-14T03:40:35.416Z,99136.75
2019-01-14T03:43:08.851Z,99141.66
2019-01-14T03:45:41.797Z,99156.16
2019-01-14T03:48:14.819Z,99154.72
2019-01-14T03:50:48.210Z,99148.44
2019-01-14T03:53:21.144Z,99149.42
2019-01-14T03:55:54.391Z,99153.41
2019-01-14T03:58:27.789Z,99158.84
2019-01-14T04:01:00.744Z,99154.84
2019-01-14T04:03:33.709Z,99154.22
2019-01-14T04:06:07.140Z,99153.30
2019-01-14T04:08:40.040Z,99158.09
2019-01-14T04:11:13.107Z,99164.09
2019-01-14T04:13:48.539Z,99167.50
2019-01-14T04:16:21.590Z,99173.80
2019-01-14T04:18:54.965Z,99165.73
2019-01-14T04:21:28.560Z,99172.71
2019-01-14T04:24:01.479Z,99174.09
2019-01-14T04:26:34.554Z,99178.40
2019-01-14T04:29:08.177Z,99181.22
2019-01-14T04:31:41.186Z,99186.24
2019-01-14T04:34:14.030Z,99187.97
2019-01-14T04:36:48.813Z,99190.08
2019-01-14T04:39:22.355Z,99189.02
2019-01-14T04:41:55.391Z,99183.22
2019-01-14T04:44:28.468Z,99186.13
2019-01-14T04:47:01.451Z,99190.36
2019-01-14T04:49:34.780Z,99202.19
2019-01-14T04:52:08.612Z,99206.55
2019-01-14T04:54:41.737Z,99201.42
2019-01-14T04:57:14.654Z,99206.66
2019-01-14T04:59:49.048Z,99206.52
2019-01-14T05:02:22.128Z,99217.45
2019-01-14T05:04:55.061Z,99214.11
2019-01-14T05:07:29.669Z,99213.33
2019-01-14T05:10:04.112Z,99218.81
2019-01-14T05:12:37.724Z,99227.66
2019-01-14T05:15:13.691Z,99226.25
2019-01-14T05:17:46.763Z,99230.28
2019-01-14T05:20:24.331Z,99238.50
2019-01-14T05:22:58.000Z,99237.19
2019-01-14T05:25:30.821Z,99233.25
2019-01-14T05:28:03.894Z,99239.08
2019-01-14T05:30:37.314Z,99229.36
2019-01-14T05:33:10.524Z,99239.91
2019-01-14T05:35:43.629Z,99239.88
2019-01-14T05:38:16.772Z,99239.79
2019-01-14T05:40:49.896Z,99237.64
2019-01-14T05:43:22.963Z,99246.39
2019-01-14T05:45:56.423Z,99256.30
2019-01-14T05:48:29.335Z,99257.61
2019-01-14T05:51:02.422Z,99264.42
2019-01-14T05:53:35.888Z,99264.77
2019-01-14T05:56:08.956Z,99265.20
2019-01-14T05:58:41.928Z,99273.72
2019-01-14T06:01:15.359Z,99273.57
2019-01-14T06:03:48.287Z,99288.34
2019-01-14T06:06:21.211Z,99280.75
2019-01-14T06:08:54.727Z,99283.02
2019-01-14T06:11:27.668Z,99293.41
2019-01-14T06:14:00.636Z,99296.24
2019-01-14T06:16:33.549Z,99292.95
2019-01-14T06:19:07.814Z,99303.98
2019-01-14T06:21:40.638Z,99304.14
2019-01-14T06:24:16.391Z,99296.51
2019-01-14T06:26:49.265Z,99302.89
2019-01-14T06:29:22.296Z,99303.83
2019-01-14T06:31:55.658Z,99299.52
2019-01-14T06:34:28.711Z,99304.34
2019-01-14T06:37:01.677Z,99306.48
2019-01-14T06:39:35.454Z,99303.47
2019-01-14T06:42:11.412Z,99316.66
2019-01-14T06:44:45.485Z,99318.42
2019-01-14T06:47:19.301Z,99323.63
2019-01-14T06:49:52.331Z,99330.28
2019-01-14T06:52:25.586Z,99344.32
2019-01-14T06:54:59.629Z,99357.15
2019-01-14T06:57:32.532Z,99353.80
2019-01-14T07:00:18.727Z,99370.26
2019-01-14T07:02:52.172Z,99368.45
2019-01-14T07:05:25.667Z,99366.35
2019-01-14T07:07:59.879Z,99369.27
2019-01-14T07:10:33.363Z,99380.53
2019-01-14T07:13:06.885Z,99400.00
2019-01-14T07:15:40.994Z,99403.30
2019-01-14T07:18:13.953Z,99403.62
2019-01-14T07:20:47.066Z,99404.55
2019-01-14T07:23:20.576Z,99417.00
2019-01-14T07:25:53.628Z,99417.55
2019-01-14T07:28:26.841Z,99433.77
2019-01-14T07:31:02.479Z,99430.25
2019-01-14T07:33:35.452Z,99426.16
2019-01-14T07:36:08.544Z,99437.54
2019-01-14T07:38:42.611Z,99448.52
2019-01-14T07:41:15.645Z,99458.52
2019-01-14T07:43:48.641Z,99462.64
2019-01-14T07:46:22.190Z,99463.00
2019-01-14T07:48:55.205Z,99469.88
2019-01-14T07:51:28.130Z,99472.39
2019-01-14T07:54:01.418Z,99476.01
2019-01-14T07:56:35.328Z,99476.52
2019-01-14T07:59:09.552Z,99483.62
2019-01-14T08:01:44.781Z,99487.73
2019-01-14T08:04:17.795Z,99488.30
2019-01-14T08:06:51.047Z,99497.19
2019-01-14T08:09:24.226Z,99506.56
2019-01-14T08:11:57.237Z,99509.16
2019-01-14T08:14:30.168Z,99509.72
2019-01-14T08:17:03.867Z,99525.64
2019-01-14T08:19:36.731Z,99529.35
2019-01-14T08:22:10.451Z,99541.98
2019-01-14T08:24:44.877Z,99554.41
2019-01-14T08:27:18.467Z,99554.80
2019-01-14T08:29:52.367Z,99561.87
2019-01-14T08:32:25.784Z,99556.77
2019-01-14T08:34:59.672Z,99558.85
2019-01-14T08:37:33.614Z,99564.98
2019-01-14T08:40:09.650Z,99569.64
2019-01-14T08:42:49.664Z,99570.22
2019-01-14T08:45:22.557Z,99572.80
2019-01-14T08:47:56.830Z,99576.91
2019-01-14T08:50:31.948Z,99577.73
2019-01-14T08:53:05.372Z,99586.88
2019-01-14T08:55:38.842Z,99588.70
2019-01-14T08:58:11.954Z,99592.73
2019-01-14T09:00:44.911Z,99594.23
2019-01-14T09:03:20.611Z,99600.42
2019-01-14T09:05:53.725Z,99598.89
2019-01-14T09:08:28.843Z,99600.35
2019-01-14T09:11:02.568Z,99603.00
2019-01-14T09:13:35.725Z,99608.27
2019-01-14T09:16:09.608Z,99613.45
2019-01-14T09:18:42.716Z,99618.13
2019-01-14T09:21:17.572Z,99622.69
2019-01-14T09:23:50.447Z,99629.62
2019-01-14T09:26:23.567Z,99638.28
2019-01-14T09:28:57.576Z,99631.46
2019-01-14T09:31:32.784Z,99636.44
2019-01-14T09:34:06.308Z,99636.44
2019-01-14T09:36:39.740Z,99634.53
2019-01-14T09:39:13.040Z,99638.38
2019-01-14T09:41:46.217Z,99647.14
2019-01-14T09:44:19.772Z,99652.68
2019-01-14T09:46:52.681Z,99650.89
2019-01-14T09:49:25.715Z,99650.06
2019-01-14T09:51:59.648Z,99649.08
2019-01-14T09:54:38.488Z,99651.80
2019-01-14T09:57:13.052Z,99665.22
2019-01-14T09:59:45.994Z,99669.34
2019-01-14T10:02:19.305Z,99678.36
2019-01-14T10:04:53.412Z,99673.63
2019-01-14T10:07:26.390Z,99677.41
2019-01-14T10:09:59.321Z,99684.85
2019-01-14T10:12:32.769Z,99686.16
2019-01-14T10:15:13.057Z,99684.69
2019-01-14T10:17:48.307Z,99688.20
2019-01-14T10:20:22.332Z,99693.92
2019-01-14T10:22:55.441Z,99690.71
2019-01-14T10:25:28.573Z,99694.86
2019-01-14T10:28:01.583Z,99697.83
2019-01-14T10:30:35.229Z,99694.70
2019-01-14T10:33:08.088Z,99697.73
2019-01-14T10:35:42.224Z,99702.89
2019-01-14T10:38:15.069Z,99710.91
2019-01-14T10:40:48.161Z,99710.50
2019-01-14T10:43:21.473Z,99711.70
2019-01-14T10:45:54.520Z,99714.59
2019-01-14T10:48:34.378Z,99706.19
2019-01-14T10:51:08.284Z,99720.17
2019-01-14T10:53:41.847Z,99714.10
2019-01-14T10:56:17.501Z,99716.17
2019-01-14T10:58:50.504Z,99722.44
2019-01-14T11:01:23.400Z,99726.94
2019-01-14T11:03:57.760Z,99727.83
2019-01-14T11:06:31.268Z,99730.88
2019-01-14T11:09:08.708Z,99736.91
2019-01-14T11:11:41.824Z,99741.75
2019-01-14T11:14:14.801Z,99749.63
2019-01-14T11:16:48.304Z,99746.41
2019-01-14T11:19:22.568Z,99762.53
2019-01-14T11:21:55.932Z,99753.63
2019-01-14T11:24:49.575Z,99756.22
2019-01-14T11:27:22.612Z,99759.84
2019-01-14T11:29:55.587Z,99756.92
2019-01-14T11:32:36.193Z,99758.42
2019-01-14T11:35:11.085Z,99756.08
2019-01-14T11:37:44.803Z,99754.14
2019-01-14T11:40:22.831Z,99750.52
2019-01-14T11:42:56.763Z,99763.42
2019-01-14T11:45:30.788Z,99770.16
2019-01-14T11:48:04.793Z,99771.61
2019-01-14T11:50:38.348Z,99772.25
2019-01-14T11:53:11.379Z,99784.08
2019-01-14T11:55:46.514Z,99775.97
2019-01-14T11:58:20.352Z,99785.23
2019-01-14T12:00:53.384Z,99771.28
2019-01-14T12:03:27.753Z,99775.70
2019-01-14T12:06:00.892Z,99778.45
2019-01-14T12:08:34.195Z,99786.83
2019-01-14T12:11:07.693Z,99762.80
2019-01-14T12:13:42.447Z,99775.64
2019-01-14T12:16:15.406Z,99794.48
2019-01-14T12:18:50.361Z,99787.75
2019-01-14T12:21:23.508Z,99798.62
2019-01-14T12:23:56.359Z,99825.67
2019-01-14T12:26:32.374Z,99811.00
2019-01-14T12:29:09.683Z,99811.09
2019-01-14T12:31:43.510Z,99812.95
2019-01-14T12:34:16.744Z,99814.83
2019-01-14T12:36:49.902Z,99813.42
2019-01-14T12:39:23.514Z,99807.16
2019-01-14T12:41:56.552Z,99805.86
2019-01-14T12:44:29.869Z,99806.38
2019-01-14T12:47:05.768Z,99816.63
2019-01-14T12:49:38.814Z,99816.98
2019-01-14T12:52:12.264Z,99817.94
2019-01-14T12:54:45.841Z,99807.92
2019-01-14T12:57:18.869Z,99806.23
2019-01-14T12:59:52.043Z,99823.16
2019-01-14T13:02:26.380Z,99859.22
2019-01-14T13:04:59.677Z,99858.97
2019-01-14T13:07:32.621Z,99883.09
2019-01-14T13:10:10.904Z,99877.61
2019-01-14T13:12:44.937Z,99864.41
2019-01-14T13:15:24.979Z,99870.60
2019-01-14T13:17:58.563Z,99867.66
2019-01-14T13:20:32.539Z,99865.47
2019-01-14T13:23:09.196Z,99869.00
2019-01-14T13:25:42.572Z,99867.70
2019-01-14T13:28:15.576Z,99878.75
2019-01-14T13:30:49.187Z,99885.28
2019-01-14T13:33:22.299Z,99883.56
2019-01-14T13:35:55.367Z,99882.03
2019-01-14T13:38:28.719Z,99894.30
2019-01-14T13:41:04.558Z,99894.66
2019-01-14T13:43:38.264Z,99899.09
2019-01-14T13:46:11.942Z,99902.89
2019-01-14T13:48:45.088Z,99901.72
2019-01-14T13:51:18.171Z,99903.55
2019-01-14T13:53:51.160Z,99905.91
2019-01-14T13:56:25.504Z,99901.27
2019-01-14T13:58:58.382Z,99916.61
2019-01-14T14:01:31.695Z,99918.86
2019-01-14T14:04:07.157Z,99911.81
2019-01-14T14:06:41.106Z,99916.96
2019-01-14T14:09:14.039Z,99915.61
2019-01-14T14:11:50.447Z,99929.44
2019-01-14T14:14:23.370Z,99939.33
2019-01-14T14:16:56.460Z,99939.63
2019-01-14T14:19:30.975Z,99950.41
2019-01-14T14:22:11.539Z,99946.42
2019-01-14T14:24:45.705Z,99948.98
2019-01-14T14:27:18.993Z,99954.80
2019-01-14T14:29:52.780Z,99961.33
2019-01-14T14:32:25.720Z,99968.48
2019-01-14T14:34:58.568Z,99969.16
2019-01-14T14:37:31.588Z,99972.75
2019-01-14T14:40:06.497Z,99983.00
2019-01-14T14:42:40.142Z,99983.27
2019-01-14T14:45:15.927Z,99987.55
2019-01-14T14:47:49.716Z,99990.00
2019-01-14T14:50:24.102Z,99992.27
2019-01-14T14:52:57.186Z,100004.28
2019-01-14T14:55:30.473Z,100006.83
2019-01-14T14:58:04.278Z,100009.78
2019-01-14T15:00:37.983Z,100011.07
2019-01-14T15:03:14.351Z,100025.05
2019-01-14T15:06:11.806Z,100018.46
2019-01-14T15:08:45.245Z,100028.33
2019-01-14T15:11:18.533Z,100028.22
2019-01-14T15:13:51.551Z,100019.87
2019-01-14T15:16:28.062Z,100020.73
2019-01-14T15:19:01.498Z,100030.62
2019-01-14T15:21:35.584Z,100029.61
2019-01-14T15:24:08.558Z,100039.50
2019-01-14T15:26:41.600Z,100038.16
2019-01-14T15:29:15.445Z,100056.64
2019-01-14T15:31:49.317Z,100059.00
2019-01-14T15:34:25.737Z,100069.02
2019-01-14T15:37:00.162Z,100068.33
2019-01-14T15:39:54.874Z,100067.23
2019-01-14T15:42:29.397Z,100076.92
2019-01-14T15:45:08.481Z,100084.41
2019-01-14T15:47:41.549Z,100077.85
2019-01-14T15:50:14.894Z,100098.53
2019-01-14T15:52:48.093Z,100095.31
2019-01-14T15:55:26.647Z,100100.80
2019-01-14T15:58:00.907Z,100103.38
2019-01-14T16:00:34.687Z,100112.09
2019-01-14T16:03:07.720Z,100114.80
2019-01-14T16:05:42.071Z,100115.37
2019-01-14T16:08:15.857Z,100117.07
2019-01-14T16:10:48.859Z,100116.34
2019-01-14T16:13:21.866Z,100126.09
2019-01-14T16:15:57.220Z,100133.37
2019-01-14T16:18:30.635Z,100141.06
2019-01-14T16:21:04.482Z,100141.02
2019-01-14T16:23:37.912Z,100144.76
2019-01-14T16:26:13.051Z,100139.73
2019-01-14T16:28:46.926Z,100148.28
2019-01-14T16:31:22.779Z,100141.93
2019-01-14T16:33:56.781Z,100148.78
2019-01-14T16:36:30.342Z,100149.02
2019-01-14T16:39:07.838Z,100156.34
2019-01-14T16:41:42.856Z,100149.55
2019-01-14T16:44:21.509Z,100148.31
2019-01-14T16:46:57.909Z,100151.25
2019-01-14T16:49:32.513Z,100158.81
2019-01-14T16:52:07.265Z,100156.83
2019-01-14T16:54:40.388Z,100152.98
2019-01-14T16:57:16.120Z,100153.75
2019-01-14T16:59:51.652Z,100155.34
2019-01-14T17:02:25.881Z,100157.09
2019-01-14T17:05:00.506Z,100159.23
2019-01-14T17:07:36.441Z,100155.59
2019-01-14T17:10:12.990Z,100159.44
2019-01-14T17:12:48.963Z,100170.18
2019-01-14T17:15:23.396Z,100186.30
2019-01-14T17:17:57.265Z,100188.24
2019-01-14T17:20:30.362Z,100187.55
2019-01-14T17:23:03.754Z,100190.34
2019-01-14T17:25:39.273Z,100196.09
2019-01-14T17:28:12.723Z,100201.41
2019-01-14T17:30:50.874Z,100205.54
2019-01-14T17:33:24.228Z,100208.39
2019-01-14T17:35:57.309Z,100210.42
2019-01-14T17:38:31.464Z,100212.30
2019-01-14T17:41:06.314Z,100215.29
2019-01-14T17:43:41.395Z,100212.72
2019-01-14T17:46:16.172Z,100208.52
2019-01-14T17:48:51.026Z,100215.95
2019-01-14T17:51:24.164Z,100226.62
2019-01-14T17:54:00.088Z,100215.02
2019-01-14T17:56:33.218Z,100215.88
2019-01-14T17:59:07.261Z,100220.48
2019-01-14T18:01:42.339Z,100222.02
2019-01-14T18:04:15.947Z,100226.88
2019-01-14T18:06:52.569Z,100222.77
2019-01-14T18:09:25.787Z,100227.20
2019-01-14T18:11:59.758Z,100237.08
2019-01-14T18:14:34.441Z,100238.93
2019-01-14T18:17:07.589Z,100242.72
2019-01-14T18:19:42.847Z,100254.03
2019-01-14T18:22:18.277Z,100258.50
2019-01-14T18:24:52.716Z,100261.58
2019-01-14T18:27:26.523Z,100258.27
2019-01-14T18:30:04.260Z,100259.10
2019-01-14T18:32:38.291Z,100267.59
2019-01-14T18:35:11.528Z,100276.13
2019-01-14T18:37:48.946Z,100288.88
2019-01-14T18:40:23.283Z,100285.53
2019-01-14T18:42:57.192Z,100292.10
2019-01-14T18:45:31.700Z,100294.75
2019-01-14T18:48:05.157Z,100291.05
2019-01-14T18:50:38.434Z,100294.69
2019-01-14T18:53:12.113Z,100297.02
2019-01-14T18:55:45.940Z,100304.52
2019-01-14T18:58:19.979Z,100310.27
2019-01-14T19:00:53.741Z,100306.70
2019-01-14T19:03:28.656Z,100312.22
2019-01-14T19:06:01.734Z,100307.11
2019-01-14T19:08:35.298Z,100312.20
2019-01-14T19:11:09.178Z,100318.27
2019-01-14T19:13:42.257Z,100313.51
2019-01-14T19:16:15.966Z,100318.06
2019-01-14T19:18:50.480Z,100324.30
2019-01-14T19:21:24.483Z,100332.66
2019-01-14T19:23:59.143Z,100337.83
2019-01-14T19:26:32.357Z,100341.14
2019-01-14T19:29:05.640Z,100342.44
2019-01-14T19:31:38.924Z,100338.78
2019-01-14T19:34:11.833Z,100342.23
2019-01-14T19:36:45.229Z,100340.92
2019-01-14T19:39:19.299Z,100345.53
2019-01-14T19:41:54.846Z,100352.07
2019-01-14T19:44:27.932Z,100358.96
2019-01-14T19:47:01.624Z,100357.50
2019-01-14T19:49:34.565Z,100361.83
2019-01-14T19:52:07.981Z,100359.46
2019-01-14T19:54:42.398Z,100363.88
2019-01-14T19:57:15.527Z,100367.13
2019-01-14T19:59:48.809Z,100371.50
2019-01-14T20:02:24.851Z,100369.56
2019-01-14T20:05:00.884Z,100368.91
2019-01-14T20:07:36.674Z,100367.78
2019-01-14T20:10:13.534Z,100370.90
2019-01-14T20:12:48.573Z,100372.16
2019-01-14T20:15:25.365Z,100370.34
2019-01-14T20:17:59.213Z,100379.88
2019-01-14T20:20:32.283Z,100376.33
2019-01-14T20:23:05.565Z,100379.11
2019-01-14T20:25:40.097Z,100380.09
2019-01-14T20:28:13.880Z,100387.66
2019-01-14T20:30:48.177Z,100382.30
2019-01-14T20:33:21.331Z,100393.04
2019-01-14T20:35:55.786Z,100391.41
2019-01-14T20:38:30.291Z,100390.70
2019-01-14T20:41:03.281Z,100384.23
2019-01-14T20:43:36.500Z,100394.04
2019-01-14T20:46:09.949Z,100389.11
2019-01-14T20:48:43.073Z,100382.48
2019-01-14T20:51:16.028Z,100387.30
2019-01-14T20:53:49.448Z,100385.27
2019-01-14T20:56:23.591Z,100390.22
2019-01-14T20:58:57.918Z,100395.11
2019-01-14T21:01:31.750Z,100389.28
2019-01-14T21:04:04.940Z,100384.24
2019-01-14T21:06:38.495Z,100387.72
2019-01-14T21:09:11.691Z,100391.73
2019-01-14T21:11:44.655Z,100381.95
2019-01-14T21:14:18.188Z,100383.13
2019-01-14T21:16:51.293Z,100379.37
2019-01-14T21:19:24.489Z,100389.52
2019-01-14T21:21:58.695Z,100387.99
2019-01-14T21:24:33.801Z,100390.35
2019-01-14T21:27:10.053Z,100390.30
2019-01-14T21:29:45.586Z,100391.47
2019-01-14T21:32:18.573Z,100386.43
2019-01-14T21:34:52.782Z,100385.83
2019-01-14T21:37:26.542Z,100388.85
2019-01-14T21:40:01.023Z,100386.67
2019-01-14T21:42:35.499Z,100393.30
2019-01-14T21:45:14.191Z,100401.39
2019-01-14T21:47:47.382Z,100407.63
2019-01-14T21:50:21.602Z,100402.78
2019-01-14T21:52:55.625Z,100407.15
2019-01-14T21:55:29.420Z,100403.47
2019-01-14T21:58:04.242Z,100414.91
2019-01-14T22:00:37.533Z,100409.08
2019-01-14T22:03:10.551Z,100404.91
2019-01-14T22:05:44.120Z,100404.00
2019-01-14T22:08:17.717Z,100403.50
2019-01-14T22:10:50.740Z,100405.66
2019-01-14T22:13:24.176Z,100404.00
2019-01-14T22:15:57.083Z,100406.02
2019-01-14T22:18:31.787Z,100412.98
2019-01-14T22:21:06.987Z,100417.97
2019-01-14T22:23:39.926Z,100425.83
2019-01-14T22:26:13.043Z,100420.91
2019-01-14T22:28:46.804Z,100422.55
2019-01-14T22:31:20.597Z,100426.08
2019-01-14T22:33:53.595Z,100425.16
2019-01-14T22:36:27.108Z,100425.28
2019-01-14T22:39:00.185Z,100427.23
2019-01-14T22:41:34.680Z,100426.39
2019-01-14T22:44:08.808Z,100424.52
2019-01-14T22:46:41.955Z,100427.36
2019-01-14T22:49:14.932Z,100434.36
2019-01-14T22:51:49.556Z,100435.25
2019-01-14T22:54:22.594Z,100437.24
2019-01-14T22:56:57.288Z,100435.92
2019-01-14T22:59:30.771Z,100437.47
2019-01-14T23:02:04.721Z,100435.09
2019-01-14T23:04:37.805Z,100430.99
2019-01-14T23:07:11.371Z,100430.88
2019-01-14T23:09:47.500Z,100427.75
2019-01-14T23:12:20.543Z,100433.01
2019-01-14T23:14:57.053Z,100437.18
2019-01-14T23:17:30.056Z,100445.25
2019-01-14T23:20:05.124Z,100438.78
2019-01-14T23:22:38.486Z,100439.23
2019-01-14T23:25:11.547Z,100439.70
2019-01-14T23:27:47.352Z,100441.80
2019-01-14T23:30:20.771Z,100438.66
2019-01-14T23:32:54.293Z,100439.53
2019-01-14T23:35:27.579Z,100438.58
2019-01-14T23:38:01.206Z,100443.44
2019-01-14T23:40:34.100Z,100434.53
2019-01-14T23:43:07.395Z,100436.38
2019-01-14T23:45:40.905Z,100441.40
2019-01-14T23:48:13.912Z,100437.15
2019-01-14T23:50:47.927Z,100434.36
2019-01-14T23:53:22.262Z,100427.86
2019-01-14T23:55:55.077Z,100433.25
2019-01-14T23:58:28.104Z,100435.18
